Time;durP1;ratioP1;P1;durP2;ratioP2;P2;SDS_P1;SDS_P2;PMS_P1;PMS_P2;Temp;Humidity;BMP_temperature;BMP_pressure;BME280_temperature;BME280_humidity;BME280_pressure;Samples;Min_cycle;Max_cycle;Signal;HPM_P1;HPM_P2
2022/12/13 00:01:35;;;;;;;68.72;29.83;;;-2.10;99.90;;;;;;5015189;28;92951;-76
2022/12/13 00:04:04;;;;;;;71.07;30.35;;;-2.10;99.90;;;;;;5015466;28;92529;-76
2022/12/13 00:06:32;;;;;;;75.90;30.50;;;-2.10;99.90;;;;;;5014054;28;94424;-76
2022/12/13 00:09:00;;;;;;;73.30;31.90;;;-2.10;99.90;;;;;;5014310;28;95981;-76
2022/12/13 00:11:28;;;;;;;73.10;30.00;;;-2.10;99.90;;;;;;5014773;28;93146;-76
2022/12/13 00:13:55;;;;;;;68.68;31.77;;;-2.10;99.90;;;;;;5014739;28;92641;-76
2022/12/13 00:16:24;;;;;;;76.53;31.45;;;-2.10;99.90;;;;;;5014275;28;93104;-76
2022/12/13 00:18:54;;;;;;;68.53;30.45;;;-2.10;99.90;;;;;;5014185;28;95686;-76
2022/12/13 00:21:27;;;;;;;70.97;30.33;;;-2.10;99.90;;;;;;5014116;28;94040;-76
2022/12/13 00:23:55;;;;;;;64.73;30.97;;;-2.10;99.90;;;;;;5014501;28;92963;-76
2022/12/13 00:26:24;;;;;;;64.80;29.45;;;-2.10;99.90;;;;;;5015424;28;92527;-76
2022/12/13 00:28:53;;;;;;;75.45;29.80;;;-2.10;99.90;;;;;;5014367;28;92838;-76
2022/12/13 00:31:23;;;;;;;63.40;29.35;;;-2.10;99.90;;;;;;5015035;28;92433;-76
2022/12/13 00:34:10;;;;;;;67.50;29.25;;;-2.10;99.90;;;;;;5013983;28;92534;-77
2022/12/13 00:36:36;;;;;;;73.15;30.63;;;-2.10;99.90;;;;;;5015553;28;91729;-76
2022/12/13 00:39:03;;;;;;;65.63;28.98;;;-2.20;99.90;;;;;;5013841;28;95829;-76
2022/12/13 00:41:33;;;;;;;63.38;30.88;;;-2.20;99.90;;;;;;5014031;28;93214;-76
2022/12/13 00:44:01;;;;;;;67.72;30.10;;;-2.20;99.90;;;;;;4995918;28;95739;-76
2022/12/13 00:46:28;;;;;;;68.88;28.00;;;-2.20;99.90;;;;;;5013420;28;98322;-76
2022/12/13 00:48:59;;;;;;;69.10;29.67;;;-2.20;99.90;;;;;;5015197;28;92418;-76
2022/12/13 00:51:29;;;;;;;65.22;29.52;;;-2.20;99.90;;;;;;5015266;28;92968;-76
2022/12/13 00:53:56;;;;;;;68.03;30.20;;;-2.20;99.90;;;;;;5015159;28;92353;-76
2022/12/13 00:56:26;;;;;;;64.32;27.98;;;-2.20;99.90;;;;;;5013660;28;92480;-76
2022/12/13 00:58:54;;;;;;;69.93;30.08;;;-2.20;99.90;;;;;;5014987;28;93360;-76
2022/12/13 01:01:24;;;;;;;66.75;28.10;;;-2.20;99.90;;;;;;5014321;28;92956;-76
2022/12/13 01:03:56;;;;;;;73.03;28.30;;;-2.20;99.90;;;;;;5014959;28;92459;-76
2022/12/13 01:06:37;;;;;;;63.63;29.08;;;-2.20;99.90;;;;;;5013836;28;92621;-76
2022/12/13 01:09:08;;;;;;;56.53;27.17;;;-2.30;99.90;;;;;;5013622;28;94776;-76
2022/12/13 01:11:35;;;;;;;59.88;28.73;;;-2.30;99.90;;;;;;5013141;28;95280;-76
2022/12/13 01:14:03;;;;;;;61.65;25.30;;;-2.30;99.90;;;;;;4997034;28;92384;-76
2022/12/13 01:16:29;;;;;;;65.90;28.75;;;-2.30;99.90;;;;;;5013594;28;92566;-76
2022/12/13 01:18:57;;;;;;;66.97;28.75;;;-2.40;99.90;;;;;;5013601;28;93511;-76
2022/12/13 01:21:24;;;;;;;66.07;29.10;;;-2.40;99.90;;;;;;4996094;28;106160;-76
2022/12/13 01:23:51;;;;;;;62.88;27.38;;;-2.40;99.90;;;;;;5014891;28;92361;-76
2022/12/13 01:26:20;;;;;;;65.22;29.65;;;-2.40;99.90;;;;;;4997289;28;92146;-76
2022/12/13 01:28:48;;;;;;;60.63;27.38;;;-2.40;99.90;;;;;;5014272;28;93211;-76
2022/12/13 01:31:18;;;;;;;61.80;27.05;;;-2.40;99.90;;;;;;5013700;28;93067;-75
2022/12/13 01:33:46;;;;;;;61.67;26.75;;;-2.40;99.90;;;;;;5012084;28;94816;-75
2022/12/13 01:36:19;;;;;;;64.68;27.58;;;-2.40;99.90;;;;;;5013116;28;92511;-75
2022/12/13 01:38:54;;;;;;;58.75;27.33;;;-2.50;99.90;;;;;;5013051;28;95677;-75
2022/12/13 01:41:24;;;;;;;64.88;27.27;;;-2.50;99.90;;;;;;5012906;28;95733;-75
2022/12/13 01:43:56;;;;;;;56.55;26.95;;;-2.50;99.90;;;;;;5014451;28;92428;-75
2022/12/13 01:46:23;;;;;;;65.68;29.67;;;-2.50;99.90;;;;;;5014500;28;92756;-75
2022/12/13 01:49:12;;;;;;;64.05;28.95;;;-2.50;99.90;;;;;;5014239;28;93392;-75
2022/12/13 01:51:58;;;;;;;58.20;26.73;;;-2.50;99.90;;;;;;5014745;28;93126;-75
2022/12/13 01:54:31;;;;;;;58.03;26.90;;;-2.60;99.90;;;;;;5013256;28;93487;-75
2022/12/13 01:57:01;;;;;;;55.65;26.30;;;-2.60;99.90;;;;;;5013287;28;92445;-75
2022/12/13 01:59:29;;;;;;;54.35;26.00;;;-2.60;99.90;;;;;;5011804;28;95410;-76
2022/12/13 02:01:56;;;;;;;56.63;26.20;;;-2.60;99.90;;;;;;5014193;28;94294;-76
2022/12/13 02:04:39;;;;;;;64.20;27.25;;;-2.60;99.90;;;;;;5013027;28;92550;-76
2022/12/13 02:07:14;;;;;;;60.08;26.27;;;-2.70;99.90;;;;;;5014417;28;92353;-75
2022/12/13 02:09:54;;;;;;;67.28;27.50;;;-2.70;99.90;;;;;;5014126;28;93317;-75
2022/12/13 02:12:23;;;;;;;58.13;26.73;;;-2.70;99.90;;;;;;5012921;28;94449;-76
2022/12/13 02:14:51;;;;;;;49.90;23.95;;;-2.70;99.90;;;;;;5013939;28;92512;-76
2022/12/13 02:17:30;;;;;;;47.70;23.33;;;-2.70;99.90;;;;;;4996255;28;91856;-76
2022/12/13 02:20:35;;;;;;;56.40;25.33;;;-2.70;99.90;;;;;;4995883;28;95627;-76
2022/12/13 02:23:39;;;;;;;51.53;26.23;;;-2.80;99.90;;;;;;4956229;28;93113;-76
2022/12/13 02:26:28;;;;;;;52.70;23.85;;;-2.80;99.90;;;;;;4957832;28;94885;-76
2022/12/13 02:29:25;;;;;;;53.25;24.17;;;-2.80;99.90;;;;;;5011926;28;92517;-76
2022/12/13 02:32:19;;;;;;;46.95;22.35;;;-2.80;99.90;;;;;;5016082;28;92424;-76
2022/12/13 02:35:29;;;;;;;50.05;23.27;;;-2.90;99.90;;;;;;5016694;28;93106;-76
2022/12/13 02:38:09;;;;;;;45.65;23.00;;;-2.90;99.90;;;;;;4994902;28;92780;-76
2022/12/13 02:41:01;;;;;;;50.30;23.77;;;-3.00;99.90;;;;;;5017246;28;92874;-76
2022/12/13 02:43:45;;;;;;;49.55;23.63;;;-3.00;99.90;;;;;;4994784;28;95738;-76
2022/12/13 02:46:17;;;;;;;51.85;23.60;;;-3.00;99.90;;;;;;5016074;28;93079;-76
2022/12/13 02:48:47;;;;;;;49.90;22.58;;;-3.10;99.90;;;;;;5016847;28;92441;-76
2022/12/13 02:51:15;;;;;;;51.78;24.88;;;-3.10;99.90;;;;;;5015848;28;92468;-76
2022/12/13 02:53:43;;;;;;;45.40;22.95;;;-3.10;99.90;;;;;;4997434;28;98108;-76
2022/12/13 02:56:10;;;;;;;47.08;22.70;;;-3.10;99.90;;;;;;5015782;28;95513;-76
2022/12/13 02:58:43;;;;;;;48.92;23.98;;;-3.10;99.90;;;;;;4999113;28;92515;-76
2022/12/13 03:02:08;;;;;;;50.13;25.63;;;-3.10;99.90;;;;;;5015745;28;92464;-76
2022/12/13 03:07:54;;;;;;;46.97;21.85;;;-3.10;99.90;;;;;;4974416;28;93164;-76
2022/12/13 03:10:32;;;;;;;52.17;24.52;;;-3.10;99.90;;;;;;5022400;28;92521;-76
2022/12/13 03:15:58;;;;;;;51.15;24.98;;;-3.20;99.90;;;;;;5015033;28;94295;-76
2022/12/13 03:18:27;;;;;;;57.78;27.17;;;-3.20;99.90;;;;;;5015233;28;93072;-76
2022/12/13 03:20:58;;;;;;;55.78;25.77;;;-3.20;99.90;;;;;;5014105;28;95492;-76
2022/12/13 03:23:25;;;;;;;58.38;26.98;;;-3.10;99.90;;;;;;5015595;28;93061;-76
2022/12/13 03:25:55;;;;;;;60.80;28.85;;;-3.10;99.90;;;;;;5014835;28;94475;-76
2022/12/13 03:28:22;;;;;;;62.88;28.52;;;-3.10;99.90;;;;;;5014926;28;92752;-76
2022/12/13 03:30:49;;;;;;;57.50;28.02;;;-3.10;99.90;;;;;;5016040;28;92450;-76
2022/12/13 03:33:16;;;;;;;58.50;29.00;;;-3.10;99.90;;;;;;5016220;28;92463;-76
2022/12/13 03:35:44;;;;;;;64.18;27.90;;;-3.10;99.90;;;;;;5014404;28;96180;-76
2022/12/13 03:38:16;;;;;;;64.82;27.42;;;-3.10;99.90;;;;;;5015031;28;95574;-76
2022/12/13 03:40:54;;;;;;;53.78;25.83;;;-3.00;99.90;;;;;;5016403;28;92477;-76
2022/12/13 03:43:22;;;;;;;56.93;25.80;;;-3.00;99.90;;;;;;5016334;28;92389;-76
2022/12/13 03:45:53;;;;;;;59.17;26.92;;;-3.10;99.90;;;;;;5014564;28;95737;-76
2022/12/13 03:48:21;;;;;;;65.50;29.40;;;-3.10;99.90;;;;;;5014624;28;96466;-76
2022/12/13 03:50:50;;;;;;;52.05;26.67;;;-3.10;99.90;;;;;;5014741;28;92600;-76
2022/12/13 03:53:17;;;;;;;63.08;28.63;;;-3.10;99.90;;;;;;5016031;28;92444;-76
2022/12/13 03:55:49;;;;;;;63.28;28.45;;;-3.10;99.90;;;;;;5015887;28;93151;-75
2022/12/13 03:58:17;;;;;;;63.42;27.45;;;-3.10;99.90;;;;;;5015890;28;94193;-76
2022/12/13 04:00:44;;;;;;;68.25;30.38;;;-3.10;99.90;;;;;;5015670;28;92371;-75
2022/12/13 04:03:11;;;;;;;63.33;29.60;;;-3.10;99.90;;;;;;5014595;28;92026;-76
2022/12/13 04:05:38;;;;;;;66.88;28.92;;;-3.10;99.90;;;;;;5014312;28;93498;-75
2022/12/13 04:08:05;;;;;;;66.05;29.33;;;-3.10;99.90;;;;;;5013983;28;95825;-76
2022/12/13 04:10:47;;;;;;;63.05;28.60;;;-3.10;99.90;;;;;;5014872;28;94734;-76
2022/12/13 04:13:32;;;;;;;69.88;30.15;;;-3.10;99.90;;;;;;5015759;28;92436;-75
2022/12/13 04:16:02;;;;;;;65.55;30.55;;;-3.10;99.90;;;;;;5015692;28;93207;-75
2022/12/13 04:18:29;;;;;;;72.35;28.77;;;-3.10;99.90;;;;;;5015510;28;93065;-76
2022/12/13 04:20:56;;;;;;;65.35;28.67;;;-3.10;99.90;;;;;;5013798;28;92430;-76
2022/12/13 04:23:23;;;;;;;71.00;29.15;;;-3.10;99.90;;;;;;5014415;28;92545;-75
2022/12/13 04:25:51;;;;;;;69.20;29.88;;;-3.10;99.90;;;;;;5014106;28;95813;-76
2022/12/13 04:28:18;;;;;;;66.93;30.10;;;-3.10;99.90;;;;;;5014525;28;93100;-76
2022/12/13 04:30:47;;;;;;;62.28;28.02;;;-3.10;99.90;;;;;;5015525;28;92354;-76
2022/12/13 04:33:14;;;;;;;59.10;28.73;;;-3.10;99.90;;;;;;5013804;28;93737;-76
2022/12/13 04:35:40;;;;;;;75.65;30.23;;;-3.10;99.90;;;;;;5012301;28;97362;-76
2022/12/13 04:38:07;;;;;;;61.08;26.67;;;-3.10;99.90;;;;;;5015177;28;95453;-76
2022/12/13 04:40:34;;;;;;;66.70;28.88;;;-3.10;99.90;;;;;;5014214;28;92487;-76
2022/12/13 04:43:01;;;;;;;62.08;28.77;;;-3.10;99.90;;;;;;5015310;28;92384;-76
2022/12/13 04:45:30;;;;;;;65.45;28.83;;;-3.10;99.90;;;;;;5014472;28;93172;-76
2022/12/13 04:47:57;;;;;;;69.63;31.25;;;-3.10;99.90;;;;;;5013457;28;94333;-75
2022/12/13 04:50:24;;;;;;;62.50;28.70;;;-3.10;99.90;;;;;;4997370;28;93085;-75
2022/12/13 04:52:51;;;;;;;62.65;28.52;;;-3.20;99.90;;;;;;5015661;28;91764;-75
2022/12/13 04:55:18;;;;;;;68.43;29.48;;;-3.20;99.90;;;;;;5014984;28;93220;-76
2022/12/13 04:57:45;;;;;;;58.97;26.65;;;-3.20;99.90;;;;;;5015011;28;93151;-75
2022/12/13 05:00:13;;;;;;;67.63;29.20;;;-3.10;99.90;;;;;;5013742;28;94837;-75
2022/12/13 05:02:40;;;;;;;62.90;27.65;;;-3.10;99.90;;;;;;5013673;28;92467;-75
2022/12/13 05:05:10;;;;;;;69.53;29.77;;;-3.10;99.90;;;;;;5014247;28;93236;-75
2022/12/13 05:07:38;;;;;;;70.65;28.58;;;-3.10;99.90;;;;;;5013850;28;93177;-76
2022/12/13 05:10:09;;;;;;;63.88;27.95;;;-3.10;99.90;;;;;;5015057;28;92525;-75
2022/12/13 05:12:35;;;;;;;72.43;30.83;;;-3.20;99.90;;;;;;5015302;28;92456;-75
2022/12/13 05:15:03;;;;;;;73.88;30.83;;;-3.20;99.90;;;;;;4980348;28;96008;-75
2022/12/13 05:17:30;;;;;;;69.93;30.40;;;-3.20;99.90;;;;;;5013753;28;97089;-75
2022/12/13 05:19:57;;;;;;;77.03;31.13;;;-3.20;99.90;;;;;;5014853;28;92379;-75
2022/12/13 05:22:24;;;;;;;76.00;29.85;;;-3.20;99.90;;;;;;5014855;28;92450;-75
2022/12/13 05:24:51;;;;;;;70.70;31.45;;;-3.20;99.90;;;;;;5013492;28;95728;-75
2022/12/13 05:27:18;;;;;;;65.82;28.67;;;-3.20;99.90;;;;;;5013340;28;95474;-75
2022/12/13 05:29:54;;;;;;;81.63;32.50;;;-3.20;99.90;;;;;;4997655;28;92584;-75
2022/12/13 05:32:35;;;;;;;78.07;32.92;;;-3.20;99.90;;;;;;5013529;28;92664;-75
2022/12/13 05:35:09;;;;;;;82.15;32.25;;;-3.20;99.90;;;;;;4998083;28;93199;-75
2022/12/13 05:37:36;;;;;;;73.60;29.65;;;-3.20;99.90;;;;;;4996866;28;95584;-75
2022/12/13 05:40:04;;;;;;;70.95;30.35;;;-3.20;99.90;;;;;;5012920;28;92423;-75
2022/12/13 05:42:31;;;;;;;81.88;32.03;;;-3.30;99.90;;;;;;4997206;28;95579;-75
2022/12/13 05:44:58;;;;;;;69.93;31.20;;;-3.30;99.90;;;;;;5013006;28;95705;-76
2022/12/13 05:47:25;;;;;;;80.35;32.35;;;-3.30;99.90;;;;;;5014251;28;93088;-76
2022/12/13 05:49:51;;;;;;;86.68;31.90;;;-3.30;99.90;;;;;;5012051;28;95013;-75
2022/12/13 05:52:21;;;;;;;82.63;32.35;;;-3.30;99.90;;;;;;5014486;28;92394;-75
2022/12/13 05:54:48;;;;;;;69.18;28.42;;;-3.30;99.90;;;;;;5012848;28;96052;-75
2022/12/13 05:57:15;;;;;;;85.15;34.17;;;-3.30;99.90;;;;;;5015160;28;93212;-76
2022/12/13 05:59:41;;;;;;;63.22;30.10;;;-3.30;99.90;;;;;;5016769;28;92472;-75
2022/12/13 06:02:08;;;;;;;71.50;30.52;;;-3.30;99.90;;;;;;5016662;28;92986;-75
2022/12/13 06:04:35;;;;;;;63.45;25.27;;;-3.30;99.90;;;;;;5017403;28;93376;-76
2022/12/13 06:07:02;;;;;;;68.70;29.52;;;-3.30;99.90;;;;;;5016621;28;95793;-75
2022/12/13 06:09:29;;;;;;;67.05;29.08;;;-3.20;99.90;;;;;;5017477;28;92495;-76
2022/12/13 06:11:56;;;;;;;71.30;28.95;;;-3.20;99.90;;;;;;5017764;28;92607;-76
2022/12/13 06:14:27;;;;;;;80.40;33.13;;;-3.20;99.90;;;;;;5014608;28;98970;-76
2022/12/13 06:16:54;;;;;;;131.45;35.65;;;-3.20;99.90;;;;;;5017496;28;95365;-76
2022/12/13 06:19:22;;;;;;;75.05;33.95;;;-3.20;99.90;;;;;;5015911;28;92550;-76
2022/12/13 06:21:51;;;;;;;177.68;68.25;;;-3.10;99.90;;;;;;5017310;28;92325;-76
2022/12/13 06:24:19;;;;;;;104.13;45.00;;;-3.10;99.90;;;;;;5015653;28;94956;-76
2022/12/13 06:26:47;;;;;;;89.10;36.95;;;-3.00;99.90;;;;;;5016024;28;93231;-76
2022/12/13 06:29:16;;;;;;;75.43;32.30;;;-3.00;99.90;;;;;;5015657;28;92486;-76
2022/12/13 06:31:55;;;;;;;123.57;51.63;;;-3.00;99.90;;;;;;5017909;28;91603;-76
2022/12/13 06:34:30;;;;;;;150.15;56.28;;;-2.90;99.90;;;;;;5015446;28;94168;-76
2022/12/13 06:36:57;;;;;;;73.70;31.42;;;-2.90;99.90;;;;;;5015684;28;100385;-76
2022/12/13 06:39:24;;;;;;;91.63;33.80;;;-2.80;99.90;;;;;;4997730;28;94961;-76
2022/12/13 06:41:50;;;;;;;85.75;37.47;;;-2.80;99.90;;;;;;5017405;28;92826;-76
2022/12/13 06:44:17;;;;;;;71.97;35.30;;;-2.80;99.90;;;;;;5015529;28;94900;-76
2022/12/13 06:46:44;;;;;;;85.05;45.67;;;-2.70;99.90;;;;;;5015606;28;93127;-76
2022/12/13 06:49:11;;;;;;;73.85;30.90;;;-2.70;99.90;;;;;;5016430;28;92458;-76
2022/12/13 06:51:38;;;;;;;73.28;30.88;;;-2.70;99.90;;;;;;5015889;28;92548;-76
2022/12/13 06:54:06;;;;;;;77.07;32.25;;;-2.60;99.90;;;;;;5015662;28;93081;-76
2022/12/13 06:56:33;;;;;;;85.07;32.55;;;-2.60;99.90;;;;;;4999029;28;94008;-76
2022/12/13 06:59:00;;;;;;;75.05;31.35;;;-2.60;99.90;;;;;;5015713;28;92490;-76
2022/12/13 07:01:29;;;;;;;67.05;30.30;;;-2.60;99.90;;;;;;4982264;28;92429;-76
2022/12/13 07:04:03;;;;;;;73.68;31.23;;;-2.50;99.90;;;;;;5014016;28;95724;-76
2022/12/13 07:06:30;;;;;;;68.63;28.65;;;-2.50;99.90;;;;;;4982008;28;98127;-76
2022/12/13 07:08:57;;;;;;;68.97;28.95;;;-2.50;99.90;;;;;;4981479;28;92429;-76
2022/12/13 07:11:26;;;;;;;70.90;30.02;;;-2.50;99.90;;;;;;5015453;28;92803;-76
2022/12/13 07:13:54;;;;;;;69.55;29.67;;;-2.50;99.90;;;;;;5016469;28;92610;-76
2022/12/13 07:16:22;;;;;;;63.17;30.10;;;-2.50;99.90;;;;;;5014620;28;106811;-76
2022/12/13 07:18:54;;;;;;;62.70;29.15;;;-2.50;99.90;;;;;;5016503;28;92466;-76
2022/12/13 07:21:28;;;;;;;61.47;28.75;;;-2.40;99.90;;;;;;5015744;28;91856;-76
2022/12/13 07:23:55;;;;;;;75.35;30.80;;;-2.40;99.90;;;;;;5016074;28;92397;-76
2022/12/13 07:26:23;;;;;;;56.78;29.45;;;-2.40;99.90;;;;;;5014678;28;95816;-76
2022/12/13 07:28:51;;;;;;;60.35;28.88;;;-2.40;99.90;;;;;;5015153;28;95855;-75
2022/12/13 07:31:22;;;;;;;59.25;29.88;;;-2.40;99.90;;;;;;5016270;28;92935;-76
2022/12/13 07:33:50;;;;;;;62.60;28.75;;;-2.40;99.90;;;;;;5015033;28;93291;-76
2022/12/13 07:36:19;;;;;;;56.45;28.40;;;-2.40;99.90;;;;;;5014831;28;100954;-76
2022/12/13 07:38:54;;;;;;;61.40;27.85;;;-2.40;99.90;;;;;;5016142;28;92373;-76
2022/12/13 07:41:25;;;;;;;65.15;27.95;;;-2.40;99.90;;;;;;5015044;28;92516;-75
2022/12/13 07:43:54;;;;;;;71.57;29.27;;;-2.40;99.90;;;;;;5014653;28;95775;-76
2022/12/13 07:46:22;;;;;;;58.60;28.25;;;-2.50;99.90;;;;;;5016078;28;93175;-75
2022/12/13 07:49:00;;;;;;;63.85;27.75;;;-2.50;99.90;;;;;;5015039;28;92438;-75
2022/12/13 07:51:28;;;;;;;55.63;26.48;;;-2.50;99.90;;;;;;5014680;28;92538;-75
2022/12/13 07:53:54;;;;;;;75.43;35.50;;;-2.40;99.90;;;;;;5014707;28;95569;-76
2022/12/13 07:56:21;;;;;;;68.90;28.85;;;-2.40;99.90;;;;;;5014314;28;95464;-76
2022/12/13 07:58:48;;;;;;;74.18;35.90;;;-2.40;99.90;;;;;;5014607;28;92468;-75
2022/12/13 08:01:15;;;;;;;67.97;33.90;;;-2.40;99.90;;;;;;5016257;28;93005;-75
2022/12/13 08:03:42;;;;;;;63.55;33.83;;;-2.30;99.90;;;;;;5015216;28;93230;-75
2022/12/13 08:06:11;;;;;;;61.45;27.73;;;-2.30;99.90;;;;;;5014504;28;101203;-75
2022/12/13 08:08:38;;;;;;;59.08;27.05;;;-2.30;99.90;;;;;;5014483;28;92439;-76
2022/12/13 08:11:11;;;;;;;80.45;30.30;;;-2.20;99.90;;;;;;5014923;28;91789;-77
2022/12/13 08:13:39;;;;;;;76.35;39.97;;;-2.20;99.90;;;;;;5015663;28;93318;-76
2022/12/13 08:16:09;;;;;;;64.72;32.03;;;-2.10;99.90;;;;;;5015464;28;93201;-76
2022/12/13 08:18:52;;;;;;;90.45;44.22;;;-2.10;99.90;;;;;;5014272;28;94843;-76
2022/12/13 08:21:36;;;;;;;61.67;31.30;;;-2.10;99.90;;;;;;5013106;28;92600;-76
2022/12/13 08:24:20;;;;;;;60.90;28.02;;;-2.00;99.90;;;;;;5015825;28;93325;-76
2022/12/13 08:26:47;;;;;;;52.15;25.65;;;-1.90;99.90;;;;;;5015247;28;93183;-76
2022/12/13 08:29:14;;;;;;;72.28;32.97;;;-1.90;99.90;;;;;;5014051;28;92533;-76
2022/12/13 08:31:49;;;;;;;60.13;28.25;;;-1.80;99.90;;;;;;5013946;28;92987;-76
2022/12/13 08:34:16;;;;;;;74.82;28.05;;;-1.80;99.90;;;;;;5015018;28;101462;-76
2022/12/13 08:36:43;;;;;;;68.28;27.20;;;-1.80;99.90;;;;;;5015611;28;93194;-75
2022/12/13 08:39:10;;;;;;;54.72;21.92;;;-1.70;99.90;;;;;;5013990;28;92530;-76
2022/12/13 08:41:37;;;;;;;49.42;22.92;;;-1.60;99.90;;;;;;5013621;28;92548;-76
2022/12/13 08:44:05;;;;;;;64.32;24.38;;;-1.50;99.90;;;;;;5012539;28;98080;-76
2022/12/13 08:46:32;;;;;;;49.47;24.30;;;-1.50;99.90;;;;;;4997234;28;98060;-76
2022/12/13 08:48:59;;;;;;;52.22;24.75;;;-1.50;99.90;;;;;;5015336;28;93115;-76
2022/12/13 08:51:26;;;;;;;50.58;22.75;;;-1.40;99.90;;;;;;5013803;28;92517;-77
2022/12/13 08:53:59;;;;;;;51.08;25.77;;;-1.40;99.90;;;;;;5014012;28;93319;-76
2022/12/13 08:56:35;;;;;;;127.57;47.40;;;-1.30;99.90;;;;;;4998089;28;95536;-76
2022/12/13 08:59:02;;;;;;;71.80;30.13;;;-1.20;99.90;;;;;;5013948;28;93039;-76
2022/12/13 09:01:30;;;;;;;119.85;50.67;;;-1.20;99.90;;;;;;5015642;28;92291;-76
2022/12/13 09:03:57;;;;;;;135.77;50.10;;;-1.10;99.90;;;;;;5014585;28;93384;-76
2022/12/13 09:06:23;;;;;;;91.75;35.92;;;-1.10;99.90;;;;;;5013915;28;93321;-77
2022/12/13 09:08:53;;;;;;;72.28;30.40;;;-1.00;99.90;;;;;;4995706;28;95425;-76
2022/12/13 09:11:20;;;;;;;49.00;24.23;;;-1.00;99.90;;;;;;5013746;28;92554;-77
2022/12/13 09:14:00;;;;;;;65.35;26.55;;;-0.90;99.90;;;;;;5014884;28;94412;-76
2022/12/13 09:16:29;;;;;;;47.55;23.92;;;-0.80;99.90;;;;;;5014982;28;92977;-76
2022/12/13 09:18:56;;;;;;;50.38;24.15;;;-0.70;99.90;;;;;;5013371;28;92549;-76
2022/12/13 09:21:23;;;;;;;54.70;25.65;;;-0.60;99.90;;;;;;5014774;28;92496;-77
2022/12/13 09:23:57;;;;;;;50.22;24.38;;;-0.50;99.90;;;;;;5013026;28;95953;-77
2022/12/13 09:26:27;;;;;;;50.97;24.48;;;-0.50;99.90;;;;;;4982280;28;94062;-77
2022/12/13 09:28:54;;;;;;;49.35;25.20;;;-0.40;99.90;;;;;;5014777;28;92450;-77
2022/12/13 09:31:21;;;;;;;52.83;25.67;;;-0.30;99.90;;;;;;5013276;28;92401;-76
2022/12/13 09:33:49;;;;;;;55.35;25.67;;;-0.30;99.90;;;;;;5015152;28;98078;-76
2022/12/13 09:36:18;;;;;;;54.33;27.38;;;-0.20;99.90;;;;;;5018074;28;95460;-76
2022/12/13 09:38:45;;;;;;;59.38;30.42;;;-0.10;99.90;;;;;;5018084;28;92941;-76
2022/12/13 09:41:21;;;;;;;52.63;27.40;;;-0.10;99.90;;;;;;5016873;28;93242;-76
2022/12/13 09:44:03;;;;;;;54.42;30.52;;;0.00;99.90;;;;;;5000690;28;95819;-76
2022/12/13 09:46:41;;;;;;;53.13;27.73;;;0.00;99.90;;;;;;5018235;28;93012;-76
2022/12/13 09:49:33;;;;;;;58.90;29.20;;;0.10;99.90;;;;;;5018092;28;92784;-76
2022/12/13 09:52:04;;;;;;;68.07;36.53;;;0.20;99.90;;;;;;5000087;28;91734;-76
2022/12/13 09:54:37;;;;;;;53.70;25.85;;;0.10;99.90;;;;;;5016290;28;94923;-76
2022/12/13 09:57:28;;;;;;;54.22;27.00;;;0.10;99.90;;;;;;5016500;28;94110;-76
2022/12/13 09:59:57;;;;;;;61.13;27.70;;;0.20;99.90;;;;;;5016682;28;94771;-75
2022/12/13 10:02:31;;;;;;;59.08;28.23;;;0.20;99.90;;;;;;5017824;28;92560;-76
2022/12/13 10:05:24;;;;;;;57.67;28.88;;;0.20;99.90;;;;;;5016144;28;93123;-75
2022/12/13 10:08:13;;;;;;;55.47;29.05;;;0.20;99.90;;;;;;5014748;28;92805;-75
2022/12/13 10:10:42;;;;;;;52.30;26.20;;;0.20;99.90;;;;;;5016579;28;92847;-75
2022/12/13 10:13:20;;;;;;;60.15;28.30;;;0.20;99.90;;;;;;5017654;28;92446;-75
2022/12/13 10:15:53;;;;;;;55.40;26.98;;;0.30;99.90;;;;;;5017728;28;93327;-75
2022/12/13 10:18:42;;;;;;;53.70;27.73;;;0.30;99.90;;;;;;5018129;28;93153;-76
2022/12/13 10:21:25;;;;;;;61.70;28.30;;;0.40;99.90;;;;;;5016198;28;92514;-76
2022/12/13 10:23:55;;;;;;;52.65;28.15;;;0.30;99.90;;;;;;5016241;28;92401;-76
2022/12/13 10:26:42;;;;;;;54.97;28.38;;;0.30;99.90;;;;;;5014514;28;98253;-76
2022/12/13 10:29:10;;;;;;;57.40;28.23;;;0.40;99.90;;;;;;5017276;28;95613;-76
2022/12/13 10:31:47;;;;;;;63.20;28.58;;;0.40;99.90;;;;;;5017651;28;92366;-76
2022/12/13 10:34:23;;;;;;;61.97;28.95;;;0.40;99.90;;;;;;5015992;28;92394;-77
2022/12/13 10:36:50;;;;;;;52.00;27.42;;;0.50;99.90;;;;;;5017016;28;92378;-76
2022/12/13 10:39:39;;;;;;;53.00;26.58;;;0.50;99.90;;;;;;5015851;28;93106;-77
2022/12/13 10:42:18;;;;;;;61.35;33.40;;;0.60;99.90;;;;;;5017215;28;92343;-77
2022/12/13 10:44:59;;;;;;;54.80;28.40;;;0.70;99.90;;;;;;5016419;28;91704;-77
2022/12/13 10:47:26;;;;;;;55.83;28.25;;;0.70;99.90;;;;;;5017126;28;93720;-76
2022/12/13 10:49:58;;;;;;;63.78;35.15;;;0.70;99.90;;;;;;5014740;28;112883;-76
2022/12/13 10:52:31;;;;;;;54.92;27.55;;;0.80;99.90;;;;;;5014906;28;94909;-76
2022/12/13 10:55:05;;;;;;;47.42;26.30;;;0.90;99.90;;;;;;5015774;28;92605;-76
2022/12/13 10:58:01;;;;;;;57.58;35.88;;;0.90;99.90;;;;;;5015867;28;93250;-76
2022/12/13 11:00:34;;;;;;;46.28;25.58;;;1.00;99.90;;;;;;5015717;28;93134;-76
2022/12/13 11:03:01;;;;;;;49.03;28.10;;;1.00;99.90;;;;;;5016033;28;93395;-76
2022/12/13 11:05:34;;;;;;;51.97;27.90;;;1.10;99.90;;;;;;5014982;28;100456;-76
2022/12/13 11:08:14;;;;;;;53.35;27.45;;;1.10;99.90;;;;;;4998506;28;95999;-76
2022/12/13 11:10:42;;;;;;;58.10;34.55;;;1.20;99.90;;;;;;5015547;28;94570;-76
2022/12/13 11:13:23;;;;;;;59.25;33.75;;;1.20;99.90;;;;;;5016616;28;96647;-76
2022/12/13 11:15:55;;;;;;;51.60;29.52;;;1.30;99.90;;;;;;5016701;28;92452;-75
2022/12/13 11:18:24;;;;;;;53.28;32.53;;;1.40;99.90;;;;;;5015365;28;95695;-75
2022/12/13 11:20:57;;;;;;;47.38;26.80;;;1.40;99.90;;;;;;5016347;28;95518;-75
2022/12/13 11:23:26;;;;;;;48.72;27.83;;;1.50;99.90;;;;;;4998756;28;92573;-75
2022/12/13 11:25:57;;;;;;;51.22;28.25;;;1.50;99.90;;;;;;5016194;28;92365;-75
2022/12/13 11:29:01;;;;;;;47.10;27.67;;;1.60;99.90;;;;;;5016456;28;92978;-76
2022/12/13 11:31:46;;;;;;;47.28;26.88;;;1.60;99.90;;;;;;5016366;28;93151;-75
2022/12/13 11:34:29;;;;;;;49.00;26.58;;;1.60;99.90;;;;;;5016455;28;92480;-75
2022/12/13 11:37:02;;;;;;;47.15;26.05;;;1.70;99.90;;;;;;5015179;28;92311;-75
2022/12/13 11:39:33;;;;;;;45.53;26.05;;;1.70;99.90;;;;;;5016358;28;93171;-75
2022/12/13 11:42:21;;;;;;;46.83;25.20;;;1.80;99.90;;;;;;5016163;28;93072;-75
2022/12/13 11:45:13;;;;;;;47.72;25.73;;;1.90;99.90;;;;;;5015546;28;95164;-75
2022/12/13 11:47:54;;;;;;;49.85;26.52;;;1.90;99.90;;;;;;5016471;28;92533;-75
2022/12/13 11:50:48;;;;;;;49.58;26.23;;;1.90;99.90;;;;;;5016229;28;93253;-75
2022/12/13 11:53:21;;;;;;;47.72;26.90;;;2.00;99.90;;;;;;5016010;28;93035;-76
2022/12/13 11:56:03;;;;;;;43.60;25.17;;;2.00;99.90;;;;;;5016083;28;92927;-75
2022/12/13 11:58:36;;;;;;;45.92;25.95;;;2.00;99.90;;;;;;5015060;28;92567;-75
2022/12/13 12:01:33;;;;;;;46.78;27.27;;;2.10;99.90;;;;;;5015455;28;94301;-75
2022/12/13 12:04:18;;;;;;;44.03;25.95;;;2.10;99.90;;;;;;5013665;28;96111;-75
2022/12/13 12:07:03;;;;;;;42.17;25.20;;;2.20;99.90;;;;;;5015953;28;92547;-75
2022/12/13 12:10:16;;;;;;;43.65;25.17;;;2.30;99.90;;;;;;5015893;28;92536;-75
2022/12/13 12:12:49;;;;;;;42.92;25.35;;;2.30;99.90;;;;;;5012892;28;98265;-75
2022/12/13 12:15:34;;;;;;;42.08;24.25;;;2.30;99.90;;;;;;5014254;28;95499;-75
2022/12/13 12:18:14;;;;;;;40.47;24.25;;;2.40;99.90;;;;;;5014486;28;92458;-75
2022/12/13 12:20:56;;;;;;;39.72;25.42;;;2.40;99.90;;;;;;5014427;28;92529;-76
2022/12/13 12:23:40;;;;;;;36.55;21.17;;;2.40;99.90;;;;;;5015946;28;93184;-75
2022/12/13 12:26:16;;;;;;;40.88;24.10;;;2.50;99.90;;;;;;5015578;28;93055;-75
2022/12/13 12:29:17;;;;;;;36.20;21.98;;;2.40;99.90;;;;;;5014343;28;92540;-75
2022/12/13 12:32:10;;;;;;;40.85;23.13;;;2.50;99.90;;;;;;5016211;28;91731;-76
2022/12/13 12:34:52;;;;;;;41.83;24.77;;;2.40;99.90;;;;;;5014316;28;92717;-75
2022/12/13 12:37:28;;;;;;;40.42;24.10;;;2.40;99.90;;;;;;5015217;28;93287;-75
2022/12/13 12:39:55;;;;;;;40.33;24.52;;;2.40;99.90;;;;;;5014446;28;94892;-75
2022/12/13 12:43:09;;;;;;;40.67;24.73;;;2.40;99.90;;;;;;5013788;28;92427;-76
2022/12/13 12:45:54;;;;;;;40.83;26.40;;;2.50;99.90;;;;;;5007258;28;93284;-75
2022/12/13 12:48:46;;;;;;;42.95;26.30;;;2.50;99.90;;;;;;5015220;28;92949;-75
2022/12/13 12:51:50;;;;;;;41.00;25.80;;;2.50;99.90;;;;;;5015425;28;92515;-75
2022/12/13 12:54:19;;;;;;;42.10;25.70;;;2.50;99.90;;;;;;5013748;28;92490;-75
2022/12/13 12:57:12;;;;;;;48.33;26.80;;;2.50;99.90;;;;;;5013584;28;95614;-76
2022/12/13 13:00:14;;;;;;;66.97;39.70;;;2.60;99.90;;;;;;5015551;28;92841;-75
2022/12/13 13:03:07;;;;;;;43.88;26.70;;;2.50;99.90;;;;;;5013812;28;92885;-75
2022/12/13 13:05:51;;;;;;;46.50;26.90;;;2.50;99.90;;;;;;5007388;28;92499;-75